Time;durP1;ratioP1;P1;durP2;ratioP2;P2;SDS_P1;SDS_P2;PMS_P1;PMS_P2;Temp;Humidity;BMP_temperature;BMP_pressure;BME280_temperature;BME280_humidity;BME280_pressure;Samples;Min_cycle;Max_cycle;Signal;HPM_P1;HPM_P2
2021/03/16 00:00:09;;;;;;;3.17;2.57;;;4.80;99.90;;;;;;5008380;28;20225;-75
2021/03/16 00:02:35;;;;;;;10.43;2.60;;;4.80;99.90;;;;;;5002210;28;20186;-75
2021/03/16 00:05:01;;;;;;;6.80;2.00;;;4.80;99.90;;;;;;5006318;28;20931;-74
2021/03/16 00:07:26;;;;;;;3.20;2.90;;;4.80;99.90;;;;;;5003434;28;20250;-74
2021/03/16 00:09:52;;;;;;;5.70;2.17;;;4.90;99.90;;;;;;5006150;28;20879;-74
2021/03/16 00:12:18;;;;;;;3.23;1.90;;;4.80;99.90;;;;;;5012326;28;20283;-75
2021/03/16 00:14:43;;;;;;;6.47;2.47;;;4.80;99.90;;;;;;5004546;28;20711;-73
2021/03/16 00:17:09;;;;;;;5.50;1.97;;;4.80;99.90;;;;;;5004852;28;20183;-74
2021/03/16 00:19:35;;;;;;;9.80;2.40;;;4.80;99.90;;;;;;5006150;28;20686;-72
2021/03/16 00:22:01;;;;;;;8.97;2.30;;;4.80;99.90;;;;;;5003214;28;20425;-74
2021/03/16 00:24:26;;;;;;;5.33;1.73;;;4.80;99.90;;;;;;5007342;28;20214;-74
2021/03/16 00:26:52;;;;;;;3.57;1.90;;;4.80;99.90;;;;;;5003748;28;20534;-73
2021/03/16 00:29:17;;;;;;;15.77;2.67;;;4.80;99.90;;;;;;5010311;28;20193;-75
2021/03/16 00:31:43;;;;;;;3.87;1.80;;;4.80;99.90;;;;;;5007878;28;20183;-73
2021/03/16 00:34:09;;;;;;;4.70;2.60;;;4.70;99.90;;;;;;5004556;28;20630;-76
2021/03/16 00:36:34;;;;;;;5.17;2.00;;;4.70;99.90;;;;;;5003891;28;20271;-73
2021/03/16 00:39:00;;;;;;;6.37;2.17;;;4.60;99.90;;;;;;5004389;28;20666;-74
2021/03/16 00:41:26;;;;;;;2.70;2.10;;;4.60;99.90;;;;;;5005360;28;20180;-73
2021/03/16 00:43:52;;;;;;;7.30;2.50;;;4.60;99.90;;;;;;5001520;28;20788;-73
2021/03/16 00:46:18;;;;;;;4.20;1.70;;;4.60;99.90;;;;;;5007907;28;20177;-74
2021/03/16 00:48:44;;;;;;;5.43;2.60;;;4.60;99.90;;;;;;5000519;28;20610;-73
2021/03/16 00:51:09;;;;;;;5.40;2.50;;;4.60;99.90;;;;;;5007289;28;20892;-73
2021/03/16 00:53:35;;;;;;;7.33;2.63;;;4.70;99.90;;;;;;5001027;28;20187;-74
2021/03/16 00:56:00;;;;;;;4.03;2.53;;;4.60;99.90;;;;;;5006618;28;20188;-74
2021/03/16 00:58:29;;;;;;;4.47;2.57;;;4.70;99.90;;;;;;5002526;28;20204;-73
2021/03/16 01:00:56;;;;;;;2.90;1.87;;;4.60;99.90;;;;;;5005425;28;20696;-73
2021/03/16 01:03:22;;;;;;;5.37;2.20;;;4.60;99.90;;;;;;5002912;28;20490;-74
2021/03/16 01:05:49;;;;;;;4.73;2.13;;;4.60;99.90;;;;;;5007213;28;20494;-73
2021/03/16 01:08:15;;;;;;;4.07;2.03;;;4.50;99.90;;;;;;5002697;28;20897;-75
2021/03/16 01:10:41;;;;;;;7.40;1.80;;;4.50;99.90;;;;;;5004197;28;20522;-73
2021/03/16 01:13:07;;;;;;;2.37;2.17;;;4.40;99.90;;;;;;5003012;28;20390;-74
2021/03/16 01:15:33;;;;;;;6.00;2.63;;;4.40;99.90;;;;;;5006104;28;20445;-74
2021/03/16 01:17:59;;;;;;;2.50;1.77;;;4.40;99.90;;;;;;5000729;28;20180;-74
2021/03/16 01:20:25;;;;;;;3.40;2.57;;;4.40;99.90;;;;;;5004621;28;20215;-73
2021/03/16 01:22:51;;;;;;;13.43;2.53;;;4.40;99.90;;;;;;5000670;28;20435;-74
2021/03/16 01:25:17;;;;;;;6.67;2.10;;;4.40;99.90;;;;;;5005835;28;20493;-74
2021/03/16 01:27:43;;;;;;;4.00;2.50;;;4.40;99.90;;;;;;5006929;28;20960;-74
2021/03/16 01:30:09;;;;;;;5.73;2.20;;;4.40;99.90;;;;;;5003019;28;20260;-74
2021/03/16 01:32:36;;;;;;;5.30;2.13;;;4.50;99.90;;;;;;5006944;28;20214;-73
2021/03/16 01:35:03;;;;;;;2.70;2.50;;;4.50;99.90;;;;;;5001297;28;20527;-74
2021/03/16 01:37:30;;;;;;;5.93;3.00;;;4.50;99.90;;;;;;5001908;28;20427;-74
2021/03/16 01:39:56;;;;;;;5.23;2.20;;;4.50;99.90;;;;;;5003828;28;20461;-74
2021/03/16 01:42:22;;;;;;;4.43;2.50;;;4.50;99.90;;;;;;5004607;28;20405;-74
2021/03/16 01:44:48;;;;;;;5.47;2.37;;;4.60;99.90;;;;;;5003057;28;20887;-74
2021/03/16 01:47:17;;;;;;;12.63;2.80;;;4.50;99.90;;;;;;5003028;28;20282;-74
2021/03/16 01:49:43;;;;;;;4.20;2.67;;;4.50;99.90;;;;;;5006258;28;20206;-74
2021/03/16 01:52:10;;;;;;;13.50;3.20;;;4.50;99.90;;;;;;5006654;28;20431;-74
2021/03/16 01:54:40;;;;;;;8.87;3.20;;;4.40;99.90;;;;;;5003020;28;20188;-74
2021/03/16 01:57:08;;;;;;;2.57;2.13;;;4.50;99.90;;;;;;5001138;28;20442;-75
2021/03/16 01:59:34;;;;;;;5.30;2.37;;;4.50;99.90;;;;;;5001843;28;20447;-75
2021/03/16 02:02:00;;;;;;;3.00;2.27;;;4.50;99.90;;;;;;5001372;28;20430;-74
2021/03/16 02:04:26;;;;;;;7.30;3.03;;;4.50;99.90;;;;;;5002663;28;20567;-75
2021/03/16 02:07:01;;;;;;;5.77;2.40;;;4.40;99.90;;;;;;5006698;28;20448;-72
2021/03/16 02:09:43;;;;;;;2.90;2.30;;;4.40;99.90;;;;;;5002847;28;20500;-74
2021/03/16 02:12:15;;;;;;;9.57;3.10;;;4.40;99.90;;;;;;5002667;28;20959;-73
2021/03/16 02:15:03;;;;;;;6.63;2.70;;;4.40;99.90;;;;;;4998213;28;20420;-74
2021/03/16 02:17:32;;;;;;;4.20;2.33;;;4.40;99.90;;;;;;5004089;28;20429;-74
2021/03/16 02:20:21;;;;;;;7.57;2.53;;;4.40;99.90;;;;;;5001085;28;20463;-73
2021/03/16 02:22:48;;;;;;;3.30;2.57;;;4.40;99.90;;;;;;5006856;28;20498;-75
2021/03/16 02:25:38;;;;;;;6.87;2.40;;;4.40;99.90;;;;;;5003060;28;20764;-74
2021/03/16 02:28:21;;;;;;;9.80;2.57;;;4.40;99.90;;;;;;5005443;28;20470;-74
2021/03/16 02:30:47;;;;;;;5.63;3.47;;;4.40;99.90;;;;;;5002485;28;20814;-73
2021/03/16 02:33:19;;;;;;;6.43;2.33;;;4.40;99.90;;;;;;5002515;28;20835;-74
2021/03/16 02:35:48;;;;;;;19.07;3.10;;;4.40;99.90;;;;;;5003073;28;20434;-73
2021/03/16 02:38:17;;;;;;;3.53;2.50;;;4.40;99.90;;;;;;5002796;28;20458;-73
2021/03/16 02:40:47;;;;;;;6.50;2.63;;;4.30;99.90;;;;;;4999072;28;20454;-73
2021/03/16 02:43:14;;;;;;;10.17;2.37;;;4.30;99.90;;;;;;5002987;28;20833;-74
2021/03/16 02:45:39;;;;;;;12.00;2.30;;;4.30;99.90;;;;;;5002535;28;20472;-74
2021/03/16 02:48:07;;;;;;;4.13;2.30;;;4.30;99.90;;;;;;5002474;28;20467;-74
2021/03/16 02:50:34;;;;;;;8.90;2.73;;;4.30;99.90;;;;;;5002494;28;20212;-74
2021/03/16 02:52:59;;;;;;;4.80;2.50;;;4.30;99.90;;;;;;5002058;28;20488;-74
2021/03/16 02:55:26;;;;;;;4.80;2.37;;;4.30;99.90;;;;;;5006908;28;20515;-74
2021/03/16 02:57:53;;;;;;;9.60;3.47;;;4.20;99.90;;;;;;5004057;28;20195;-72
2021/03/16 03:00:19;;;;;;;5.80;2.37;;;4.20;99.90;;;;;;5002404;28;21037;-72
2021/03/16 03:02:47;;;;;;;9.37;2.47;;;4.10;99.90;;;;;;5002428;28;20412;-75
2021/03/16 03:05:14;;;;;;;3.37;2.80;;;4.10;99.90;;;;;;5003690;28;20423;-74
2021/03/16 03:07:41;;;;;;;4.73;3.00;;;4.10;99.90;;;;;;5006192;28;20457;-74
2021/03/16 03:10:08;;;;;;;4.13;2.50;;;4.10;99.90;;;;;;5002484;28;20628;-74
2021/03/16 03:12:34;;;;;;;6.10;2.73;;;4.10;99.90;;;;;;5000401;28;20434;-74
2021/03/16 03:14:59;;;;;;;2.67;2.00;;;4.10;99.90;;;;;;5004927;28;20427;-74
2021/03/16 03:17:25;;;;;;;4.30;2.50;;;4.10;99.90;;;;;;5005790;28;20687;-74
2021/03/16 03:19:51;;;;;;;3.70;2.80;;;4.10;99.90;;;;;;5005840;28;20217;-74
2021/03/16 03:22:26;;;;;;;6.27;1.87;;;4.10;99.90;;;;;;5005701;28;20298;-75
2021/03/16 03:25:04;;;;;;;5.10;2.63;;;4.10;99.90;;;;;;5006567;28;20548;-73
2021/03/16 03:27:36;;;;;;;2.90;1.60;;;4.10;99.90;;;;;;5007548;28;20494;-74
2021/03/16 03:30:03;;;;;;;6.03;2.13;;;4.20;99.90;;;;;;5004177;28;20433;-73
2021/03/16 03:32:31;;;;;;;7.10;2.73;;;4.10;99.90;;;;;;5006671;28;20430;-76
2021/03/16 03:34:59;;;;;;;6.10;2.30;;;4.10;99.90;;;;;;5002409;28;20434;-74
2021/03/16 03:37:26;;;;;;;3.10;2.10;;;4.10;99.90;;;;;;5005704;28;20466;-74
2021/03/16 03:39:53;;;;;;;10.43;2.30;;;4.10;99.90;;;;;;5004845;28;20972;-73
2021/03/16 03:42:19;;;;;;;5.13;1.90;;;4.10;99.90;;;;;;5004081;28;20947;-74
2021/03/16 03:44:47;;;;;;;6.70;2.63;;;4.10;99.90;;;;;;5005530;28;20543;-74
2021/03/16 03:47:15;;;;;;;6.83;2.67;;;4.10;99.90;;;;;;5003334;28;20461;-74
2021/03/16 03:49:42;;;;;;;3.23;2.10;;;4.10;99.90;;;;;;5003929;28;20795;-73
2021/03/16 03:52:11;;;;;;;9.50;2.80;;;4.10;99.90;;;;;;5003261;28;20458;-74
2021/03/16 03:54:40;;;;;;;5.43;2.43;;;4.10;99.90;;;;;;5004650;28;20433;-72
2021/03/16 03:57:06;;;;;;;7.90;2.30;;;4.00;99.90;;;;;;5005194;28;20406;-74
2021/03/16 03:59:32;;;;;;;7.73;2.20;;;4.00;99.90;;;;;;5003607;28;20417;-74
2021/03/16 04:01:58;;;;;;;3.90;1.83;;;4.10;99.90;;;;;;5005316;28;20437;-74
2021/03/16 04:04:28;;;;;;;7.33;2.40;;;4.10;99.90;;;;;;5002758;28;20428;-74
2021/03/16 04:06:56;;;;;;;3.93;2.00;;;4.00;99.90;;;;;;5007281;28;20528;-73
2021/03/16 04:09:22;;;;;;;4.80;1.67;;;4.00;99.90;;;;;;5002122;28;20438;-74
2021/03/16 04:11:48;;;;;;;5.20;2.03;;;4.00;99.90;;;;;;5005602;28;20424;-73
2021/03/16 04:14:14;;;;;;;10.13;2.33;;;3.90;99.90;;;;;;5001472;28;20412;-74
2021/03/16 04:16:40;;;;;;;2.20;1.63;;;3.90;99.90;;;;;;5003504;28;20437;-73
2021/03/16 04:19:06;;;;;;;5.73;2.00;;;3.90;99.90;;;;;;5002004;28;20187;-73
2021/03/16 04:21:32;;;;;;;5.37;2.30;;;3.80;99.90;;;;;;5007212;28;20500;-73
2021/03/16 04:23:58;;;;;;;4.93;2.17;;;3.80;99.90;;;;;;5003012;28;20951;-75
2021/03/16 04:26:23;;;;;;;10.87;2.20;;;3.80;99.90;;;;;;5001297;28;20206;-74
2021/03/16 04:28:49;;;;;;;3.90;1.97;;;3.70;99.90;;;;;;5003989;28;20211;-70
2021/03/16 04:31:14;;;;;;;3.67;2.20;;;3.70;99.90;;;;;;5002122;28;20182;-74
2021/03/16 04:33:40;;;;;;;8.73;2.87;;;3.70;99.90;;;;;;5003822;28;20187;-73
2021/03/16 04:36:06;;;;;;;6.47;2.03;;;3.80;99.90;;;;;;5002411;28;20183;-73
2021/03/16 04:38:31;;;;;;;6.50;2.30;;;3.80;99.90;;;;;;5002721;28;20586;-74
2021/03/16 04:40:57;;;;;;;4.77;2.30;;;3.80;99.90;;;;;;5004065;28;20453;-73
2021/03/16 04:43:23;;;;;;;4.33;2.03;;;3.80;99.90;;;;;;5003420;28;20178;-73
2021/03/16 04:45:48;;;;;;;5.40;1.90;;;3.80;99.90;;;;;;5004271;28;20258;-73
2021/03/16 04:48:14;;;;;;;5.13;2.60;;;3.80;99.90;;;;;;5004146;28;20237;-74
2021/03/16 04:50:39;;;;;;;8.67;2.00;;;3.80;99.90;;;;;;5007874;28;20191;-75
2021/03/16 04:53:05;;;;;;;2.90;1.87;;;3.80;99.90;;;;;;5003890;28;20857;-74
2021/03/16 04:55:30;;;;;;;3.60;1.60;;;3.80;99.90;;;;;;5006010;28;20209;-73
2021/03/16 04:57:56;;;;;;;4.17;1.90;;;3.80;99.90;;;;;;5001490;28;20192;-74
2021/03/16 05:00:22;;;;;;;3.77;1.73;;;3.80;99.90;;;;;;5007225;28;20199;-74
2021/03/16 05:02:47;;;;;;;4.60;1.70;;;3.80;99.90;;;;;;5000042;28;20183;-74
2021/03/16 05:05:14;;;;;;;4.60;1.90;;;3.80;99.90;;;;;;5009851;28;20183;-74
2021/03/16 05:07:39;;;;;;;9.07;2.87;;;3.80;99.90;;;;;;5007595;28;20192;-73
2021/03/16 05:10:05;;;;;;;6.47;1.40;;;3.80;99.90;;;;;;5003934;28;20560;-74
2021/03/16 05:12:31;;;;;;;4.10;2.03;;;3.80;99.90;;;;;;5003016;28;20594;-73
2021/03/16 05:14:56;;;;;;;3.33;1.43;;;3.80;99.90;;;;;;5005887;28;20426;-73
2021/03/16 05:17:22;;;;;;;4.80;2.13;;;3.80;99.90;;;;;;5011009;28;20186;-73
2021/03/16 05:19:47;;;;;;;4.27;1.70;;;3.80;99.90;;;;;;5003411;28;20204;-74
2021/03/16 05:22:13;;;;;;;3.43;1.83;;;3.80;99.90;;;;;;5011196;28;20174;-75
2021/03/16 05:24:38;;;;;;;3.37;1.50;;;3.80;99.90;;;;;;5004327;28;20176;-73
2021/03/16 05:27:04;;;;;;;1.80;1.43;;;3.80;99.90;;;;;;5004079;28;20182;-74
2021/03/16 05:29:30;;;;;;;5.03;2.43;;;3.80;99.90;;;;;;5003819;28;20556;-71
2021/03/16 05:31:55;;;;;;;5.20;2.00;;;3.90;99.90;;;;;;5000870;28;20195;-69
2021/03/16 05:34:21;;;;;;;5.67;1.77;;;3.90;99.90;;;;;;5012948;28;20182;-70
2021/03/16 05:36:47;;;;;;;2.90;1.73;;;4.00;99.90;;;;;;4999705;28;20172;-70
2021/03/16 05:39:12;;;;;;;3.60;1.80;;;4.00;99.90;;;;;;5005560;28;20215;-71
2021/03/16 05:41:40;;;;;;;6.70;2.10;;;4.00;99.90;;;;;;5002805;28;20687;-71
2021/03/16 05:44:07;;;;;;;7.50;1.90;;;4.00;99.90;;;;;;5003033;28;20175;-70
2021/03/16 05:46:36;;;;;;;4.83;3.10;;;4.10;99.90;;;;;;5001710;28;20472;-71
2021/03/16 05:49:11;;;;;;;14.50;2.30;;;4.10;99.90;;;;;;5009507;28;20552;-71
2021/03/16 05:51:37;;;;;;;4.40;2.27;;;4.10;99.90;;;;;;5002130;28;20426;-70
2021/03/16 05:54:04;;;;;;;6.30;1.90;;;4.20;99.90;;;;;;5004433;28;20518;-71
2021/03/16 05:56:31;;;;;;;4.80;2.03;;;4.20;99.90;;;;;;5007130;28;20429;-70
2021/03/16 05:58:58;;;;;;;9.67;2.80;;;4.20;99.90;;;;;;5001230;28;20756;-70
2021/03/16 06:01:23;;;;;;;5.97;1.83;;;4.20;99.90;;;;;;5003489;28;20427;-70
2021/03/16 06:03:49;;;;;;;6.17;3.50;;;4.20;99.90;;;;;;4999005;28;20431;-70
2021/03/16 06:06:14;;;;;;;4.90;2.03;;;4.20;99.90;;;;;;5005837;28;20191;-70
2021/03/16 06:08:41;;;;;;;4.13;2.10;;;4.20;99.90;;;;;;5003366;28;20210;-70
2021/03/16 06:11:07;;;;;;;9.43;3.23;;;4.20;99.90;;;;;;5010543;28;20694;-70
2021/03/16 06:13:34;;;;;;;13.43;2.47;;;4.20;99.90;;;;;;5005030;28;20414;-70
2021/03/16 06:16:10;;;;;;;3.50;2.57;;;4.20;99.90;;;;;;5007642;28;20522;-70
2021/03/16 06:18:42;;;;;;;3.43;2.10;;;4.20;99.90;;;;;;5010707;28;20544;-68
2021/03/16 06:21:08;;;;;;;7.80;2.77;;;4.20;99.90;;;;;;5005580;28;20977;-70
2021/03/16 06:23:35;;;;;;;3.47;1.87;;;4.30;99.90;;;;;;5004773;28;20870;-70
2021/03/16 06:26:03;;;;;;;4.53;1.77;;;4.20;99.90;;;;;;5005332;28;20521;-70
2021/03/16 06:28:33;;;;;;;7.10;2.30;;;4.30;99.90;;;;;;5008400;28;20462;-70
2021/03/16 06:30:59;;;;;;;6.23;2.40;;;4.20;99.90;;;;;;5002000;28;20999;-70
2021/03/16 06:33:30;;;;;;;4.93;1.83;;;4.30;99.90;;;;;;5001576;28;20422;-70
2021/03/16 06:36:08;;;;;;;2.37;2.13;;;4.30;99.90;;;;;;5002488;28;20717;-71
2021/03/16 06:38:34;;;;;;;6.00;3.03;;;4.30;99.90;;;;;;5001600;28;20446;-70
2021/03/16 06:41:15;;;;;;;3.30;2.30;;;4.20;99.90;;;;;;5007776;28;20772;-70
2021/03/16 06:43:42;;;;;;;8.23;2.50;;;4.30;99.90;;;;;;5000056;28;20441;-71
2021/03/16 06:46:08;;;;;;;7.53;2.03;;;4.40;99.90;;;;;;5003230;28;20423;-70
2021/03/16 06:48:37;;;;;;;8.67;3.00;;;4.40;99.90;;;;;;5002658;28;20461;-70
2021/03/16 06:51:14;;;;;;;7.83;2.70;;;4.40;99.90;;;;;;5008522;28;20442;-70
2021/03/16 06:53:39;;;;;;;4.47;2.73;;;4.40;99.90;;;;;;5005435;28;20457;-70
2021/03/16 06:56:06;;;;;;;5.50;1.93;;;4.40;99.90;;;;;;5010150;28;20938;-70
2021/03/16 06:58:34;;;;;;;5.57;2.30;;;4.30;99.90;;;;;;5004952;28;20215;-70
2021/03/16 07:01:04;;;;;;;11.23;4.17;;;4.30;99.90;;;;;;5011195;28;20819;-69
2021/03/16 07:03:30;;;;;;;7.20;2.80;;;4.30;99.90;;;;;;5004925;28;20431;-71
2021/03/16 07:06:22;;;;;;;6.60;2.50;;;4.20;99.90;;;;;;5013750;28;20439;-69
2021/03/16 07:08:51;;;;;;;6.80;2.70;;;4.20;99.90;;;;;;5001002;28;20444;-70
2021/03/16 07:11:21;;;;;;;4.03;2.50;;;4.20;99.90;;;;;;5012528;28;20425;-69
2021/03/16 07:13:47;;;;;;;9.60;2.67;;;4.20;99.90;;;;;;5008637;28;20801;-69
2021/03/16 07:16:14;;;;;;;15.13;2.80;;;4.20;99.90;;;;;;5012744;28;20422;-69
2021/03/16 07:18:42;;;;;;;14.47;3.73;;;4.20;99.90;;;;;;5004693;28;20847;-72
2021/03/16 07:21:29;;;;;;;9.37;3.10;;;4.20;99.90;;;;;;5004947;28;20471;-71
2021/03/16 07:23:59;;;;;;;8.23;3.53;;;4.10;99.90;;;;;;5010583;28;20435;-70
2021/03/16 07:26:26;;;;;;;15.97;4.03;;;3.90;99.90;;;;;;5010297;28;20434;-71
2021/03/16 07:28:52;;;;;;;5.67;3.17;;;3.90;99.90;;;;;;5009122;28;20798;-70
2021/03/16 07:31:18;;;;;;;7.63;3.40;;;3.80;99.90;;;;;;5011477;28;20397;-69
2021/03/16 07:33:44;;;;;;;5.13;3.40;;;3.80;99.90;;;;;;5009180;28;20422;-69
2021/03/16 07:36:10;;;;;;;7.67;2.73;;;3.90;99.90;;;;;;5009686;28;20419;-69
2021/03/16 07:38:38;;;;;;;7.83;3.30;;;3.90;99.90;;;;;;5008855;28;20196;-69
2021/03/16 07:41:04;;;;;;;6.57;3.87;;;3.90;99.90;;;;;;5003752;28;20276;-69
2021/03/16 07:43:38;;;;;;;7.80;3.03;;;4.10;99.90;;;;;;5005643;28;20488;-70
2021/03/16 07:46:11;;;;;;;3.37;3.00;;;4.20;99.90;;;;;;5011477;28;20409;-69
2021/03/16 07:48:45;;;;;;;4.10;2.13;;;4.30;99.90;;;;;;5008273;28;20466;-70
2021/03/16 07:51:13;;;;;;;16.17;3.00;;;4.40;99.90;;;;;;5010596;28;20883;-69
2021/03/16 07:53:40;;;;;;;9.03;2.67;;;4.50;99.90;;;;;;5006620;28;20464;-70
2021/03/16 07:56:09;;;;;;;3.83;2.23;;;4.70;99.90;;;;;;5009344;28;20426;-70
2021/03/16 07:58:45;;;;;;;9.97;2.83;;;4.70;99.90;;;;;;5008051;28;20422;-69
2021/03/16 08:01:12;;;;;;;7.27;2.87;;;4.80;99.90;;;;;;5010655;28;20436;-69
2021/03/16 08:03:38;;;;;;;9.47;2.43;;;4.90;99.90;;;;;;5005271;28;20418;-69
2021/03/16 08:06:04;;;;;;;5.30;2.70;;;4.80;99.90;;;;;;5003697;28;20434;-69
2021/03/16 08:08:41;;;;;;;6.63;3.03;;;5.00;99.90;;;;;;5002022;28;20466;-69
2021/03/16 08:11:12;;;;;;;4.33;2.10;;;5.00;99.90;;;;;;5002061;28;20450;-70
2021/03/16 08:13:38;;;;;;;8.00;3.30;;;5.00;99.90;;;;;;5002653;28;20473;-70
2021/03/16 08:16:16;;;;;;;4.90;2.40;;;5.10;99.90;;;;;;5004466;28;20428;-69
2021/03/16 08:18:42;;;;;;;4.17;2.10;;;5.20;99.90;;;;;;5010879;28;20452;-69
2021/03/16 08:21:14;;;;;;;5.07;2.70;;;5.20;99.90;;;;;;5007372;28;20420;-70
2021/03/16 08:23:40;;;;;;;13.67;4.20;;;5.20;99.90;;;;;;5006556;28;20191;-69
2021/03/16 08:26:07;;;;;;;13.70;3.23;;;5.20;99.90;;;;;;5004567;28;20423;-70
2021/03/16 08:28:34;;;;;;;10.60;3.27;;;5.20;99.90;;;;;;5003444;28;20458;-69
2021/03/16 08:31:01;;;;;;;15.63;2.43;;;5.10;99.90;;;;;;5004064;28;20452;-69
2021/03/16 08:33:28;;;;;;;3.70;2.77;;;5.20;99.90;;;;;;5005555;28;20436;-70
2021/03/16 08:35:55;;;;;;;4.57;2.93;;;5.20;99.90;;;;;;5006744;28;20437;-69
2021/03/16 08:38:25;;;;;;;3.60;2.50;;;5.20;99.90;;;;;;4998475;28;20433;-71
2021/03/16 08:41:04;;;;;;;6.83;3.47;;;5.20;99.90;;;;;;5005964;28;20551;-70
2021/03/16 08:43:30;;;;;;;14.50;2.77;;;5.30;99.90;;;;;;5010813;28;20439;-69
2021/03/16 08:45:56;;;;;;;8.70;2.67;;;5.40;99.90;;;;;;5009619;28;20400;-70
2021/03/16 08:48:30;;;;;;;5.83;2.87;;;5.40;99.90;;;;;;4999112;28;20344;-70
2021/03/16 08:50:55;;;;;;;5.00;2.90;;;5.50;99.90;;;;;;5004428;28;20799;-69
2021/03/16 08:53:21;;;;;;;11.10;2.73;;;5.50;99.90;;;;;;5004737;28;20403;-69
2021/03/16 08:55:51;;;;;;;8.40;2.60;;;5.60;99.90;;;;;;5005852;28;20813;-70
2021/03/16 08:58:18;;;;;;;9.83;3.67;;;5.70;99.90;;;;;;5006709;28;20529;-70
2021/03/16 09:00:44;;;;;;;8.67;3.53;;;5.70;99.90;;;;;;5005743;28;20571;-69
2021/03/16 09:03:10;;;;;;;7.20;3.97;;;5.70;99.90;;;;;;5004541;28;20428;-70
2021/03/16 09:05:35;;;;;;;9.77;4.60;;;5.70;99.90;;;;;;4998299;28;20522;-70
2021/03/16 09:08:01;;;;;;;8.67;3.47;;;5.70;99.90;;;;;;5006520;28;20611;-71
2021/03/16 09:10:28;;;;;;;5.17;3.30;;;5.50;99.90;;;;;;5007079;28;20209;-71
2021/03/16 09:12:54;;;;;;;6.67;2.77;;;5.50;99.90;;;;;;5001482;28;20189;-70
2021/03/16 09:15:26;;;;;;;7.30;3.80;;;5.50;99.90;;;;;;5007737;28;20430;-70
2021/03/16 09:17:53;;;;;;;6.80;3.63;;;5.50;99.90;;;;;;4999888;28;20940;-70
2021/03/16 09:20:25;;;;;;;7.77;3.20;;;5.40;99.90;;;;;;5003561;28;20456;-70
2021/03/16 09:22:53;;;;;;;12.53;4.43;;;5.40;99.90;;;;;;4999756;28;20926;-69
2021/03/16 09:25:23;;;;;;;4.07;3.27;;;5.10;99.90;;;;;;5003151;28;20403;-69
2021/03/16 09:27:49;;;;;;;8.53;2.70;;;5.00;99.90;;;;;;5007430;28;20560;-70
2021/03/16 09:30:16;;;;;;;5.00;3.00;;;5.10;99.90;;;;;;5008137;28;20469;-70
2021/03/16 09:32:44;;;;;;;2.50;2.33;;;5.20;99.90;;;;;;5004726;28;20435;-69
2021/03/16 09:35:13;;;;;;;6.37;2.97;;;5.30;99.90;;;;;;5010901;28;20924;-69
2021/03/16 09:37:44;;;;;;;4.30;2.50;;;5.30;99.90;;;;;;5006787;28;20504;-70
2021/03/16 09:40:10;;;;;;;8.23;3.60;;;5.50;99.90;;;;;;5005534;28;20483;-70
2021/03/16 09:42:54;;;;;;;4.87;2.70;;;5.60;99.90;;;;;;5002540;28;20421;-70
2021/03/16 09:45:24;;;;;;;5.70;3.20;;;5.60;99.90;;;;;;5006036;28;20506;-70
2021/03/16 09:47:51;;;;;;;3.50;3.20;;;5.40;99.90;;;;;;5006757;28;20824;-70
2021/03/16 09:50:20;;;;;;;4.50;3.13;;;5.30;99.90;;;;;;5008132;28;20449;-70
2021/03/16 09:52:57;;;;;;;7.37;3.20;;;5.30;99.90;;;;;;5007965;28;20456;-69
2021/03/16 09:55:24;;;;;;;6.40;3.53;;;5.30;99.90;;;;;;5000448;28;20502;-70
2021/03/16 09:57:50;;;;;;;7.97;5.20;;;5.30;99.90;;;;;;5002503;28;20458;-69
2021/03/16 10:00:16;;;;;;;11.33;4.33;;;5.30;99.90;;;;;;5002758;28;20986;-71
2021/03/16 10:02:42;;;;;;;9.43;3.90;;;5.30;99.90;;;;;;5001930;28;20178;-70
2021/03/16 10:05:14;;;;;;;6.90;3.53;;;5.40;99.90;;;;;;5005217;28;20501;-71
2021/03/16 10:07:40;;;;;;;6.43;3.07;;;5.30;99.90;;;;;;5002463;28;20461;-70
2021/03/16 10:10:15;;;;;;;9.07;2.77;;;5.30;99.90;;;;;;5000430;28;20442;-71
2021/03/16 10:12:53;;;;;;;5.20;3.10;;;5.20;99.90;;;;;;5004132;28;20426;-70
2021/03/16 10:15:28;;;;;;;13.53;3.37;;;5.30;99.90;;;;;;5003043;28;20429;-70
2021/03/16 10:17:58;;;;;;;7.53;3.63;;;5.50;99.90;;;;;;5001438;28;20940;-70
2021/03/16 10:20:27;;;;;;;11.23;3.80;;;5.70;99.90;;;;;;5004566;28;20443;-70
2021/03/16 10:22:55;;;;;;;7.57;3.40;;;5.90;99.90;;;;;;4999403;28;20961;-69
2021/03/16 10:25:24;;;;;;;15.03;4.87;;;6.00;99.90;;;;;;5006073;28;20455;-70
2021/03/16 10:27:59;;;;;;;12.53;4.50;;;6.20;99.90;;;;;;5009149;28;20523;-69
2021/03/16 10:30:42;;;;;;;6.43;4.10;;;6.30;99.90;;;;;;5007521;28;20965;-72
2021/03/16 10:33:09;;;;;;;8.77;3.60;;;6.40;99.90;;;;;;5005450;28;20496;-70
2021/03/16 10:35:36;;;;;;;6.33;3.63;;;6.60;99.90;;;;;;5009761;28;20444;-70
2021/03/16 10:38:03;;;;;;;14.70;4.03;;;6.60;99.90;;;;;;5004934;28;20434;-70
2021/03/16 10:40:29;;;;;;;6.90;3.80;;;6.70;99.90;;;;;;5006313;28;20484;-70
2021/03/16 10:42:55;;;;;;;7.73;3.33;;;6.70;99.90;;;;;;5004816;28;20433;-70
2021/03/16 10:45:20;;;;;;;8.83;3.93;;;6.90;99.90;;;;;;5006373;28;20501;-70
2021/03/16 10:47:47;;;;;;;11.63;5.13;;;7.00;99.90;;;;;;5002617;28;20587;-69
2021/03/16 10:50:13;;;;;;;10.73;4.10;;;6.80;99.90;;;;;;5006439;28;20231;-70
2021/03/16 10:52:38;;;;;;;10.60;4.20;;;6.80;99.90;;;;;;5003348;28;20454;-69
2021/03/16 10:55:05;;;;;;;8.60;3.67;;;6.90;99.90;;;;;;5005021;28;20563;-70
2021/03/16 10:57:30;;;;;;;8.53;3.33;;;7.00;99.90;;;;;;5008708;28;20186;-70
2021/03/16 10:59:56;;;;;;;8.00;3.83;;;7.10;99.90;;;;;;5006026;28;20508;-70
2021/03/16 11:02:21;;;;;;;8.37;3.57;;;7.00;99.90;;;;;;5005460;28;20609;-70
2021/03/16 11:04:47;;;;;;;4.70;3.00;;;7.00;99.90;;;;;;5003301;28;20180;-71
2021/03/16 11:07:12;;;;;;;4.47;3.67;;;7.00;99.90;;;;;;5005908;28;20186;-70
2021/03/16 11:09:38;;;;;;;8.03;3.30;;;6.80;99.90;;;;;;5005744;28;20296;-70
2021/03/16 11:12:04;;;;;;;6.57;2.83;;;6.80;99.90;;;;;;5015154;28;20187;-71
2021/03/16 11:14:30;;;;;;;11.70;4.10;;;6.80;99.90;;;;;;5008935;28;20219;-71
2021/03/16 11:16:55;;;;;;;10.53;4.07;;;6.90;99.90;;;;;;5003490;28;20933;-72
2021/03/16 11:19:21;;;;;;;10.67;3.97;;;6.90;99.90;;;;;;5015249;28;20248;-71
2021/03/16 11:21:46;;;;;;;7.70;3.70;;;6.90;99.90;;;;;;5004869;28;20621;-71
2021/03/16 11:24:13;;;;;;;7.77;3.23;;;6.90;99.90;;;;;;5009283;28;20182;-71
2021/03/16 11:26:39;;;;;;;10.13;3.00;;;7.00;99.90;;;;;;5015703;28;20695;-71
2021/03/16 11:29:04;;;;;;;7.90;3.30;;;6.90;99.90;;;;;;5009126;28;20499;-71
2021/03/16 11:31:30;;;;;;;5.50;2.90;;;6.80;99.90;;;;;;5015355;28;20648;-71
2021/03/16 11:33:57;;;;;;;5.23;2.43;;;6.70;99.90;;;;;;5005161;28;20607;-70
2021/03/16 11:36:22;;;;;;;8.03;3.53;;;6.50;99.90;;;;;;5004483;28;20787;-71
2021/03/16 11:38:48;;;;;;;6.07;2.50;;;6.50;99.90;;;;;;5005780;28;20443;-71
2021/03/16 11:41:13;;;;;;;15.20;2.57;;;6.40;99.90;;;;;;5005650;28;20200;-71
2021/03/16 11:43:39;;;;;;;8.47;2.73;;;6.30;99.90;;;;;;5001974;28;20175;-71
2021/03/16 11:46:05;;;;;;;8.03;2.80;;;6.10;99.90;;;;;;4988663;28;20205;-70
2021/03/16 11:48:30;;;;;;;6.90;2.93;;;6.00;99.90;;;;;;5005750;28;20216;-71
2021/03/16 11:50:56;;;;;;;12.50;4.00;;;5.90;99.90;;;;;;5011999;28;20197;-71
2021/03/16 11:53:22;;;;;;;6.80;3.00;;;5.90;99.90;;;;;;5011351;28;20173;-71
2021/03/16 11:55:47;;;;;;;5.20;3.20;;;5.90;99.90;;;;;;5008994;28;20650;-71
2021/03/16 11:58:13;;;;;;;7.37;3.50;;;5.90;99.90;;;;;;5012407;28;20177;-71
2021/03/16 12:00:38;;;;;;;5.03;2.63;;;6.00;99.90;;;;;;5005620;28;20222;-71
2021/03/16 12:03:04;;;;;;;4.27;2.70;;;6.10;99.90;;;;;;5002692;28;20228;-71
2021/03/16 12:05:30;;;;;;;7.57;2.60;;;6.10;99.90;;;;;;5003008;28;20218;-70
2021/03/16 12:07:56;;;;;;;8.70;3.37;;;6.10;99.90;;;;;;5006530;28;20225;-70
2021/03/16 12:10:22;;;;;;;7.73;2.87;;;6.20;99.90;;;;;;5005596;28;20963;-70
2021/03/16 12:12:47;;;;;;;8.23;2.40;;;6.30;99.90;;;;;;5006777;28;20535;-71
2021/03/16 12:15:16;;;;;;;3.20;2.23;;;6.50;99.90;;;;;;5004513;28;20421;-71
2021/03/16 12:17:43;;;;;;;9.77;3.07;;;6.70;99.90;;;;;;5004883;28;20300;-71
2021/03/16 12:20:09;;;;;;;7.43;2.60;;;7.00;99.90;;;;;;5004079;28;20474;-71
2021/03/16 12:22:34;;;;;;;4.03;2.10;;;7.30;99.90;;;;;;5001990;28;20481;-72
2021/03/16 12:25:00;;;;;;;7.07;2.70;;;7.60;99.90;;;;;;5010306;28;20431;-70
2021/03/16 12:27:26;;;;;;;5.57;2.93;;;7.70;99.90;;;;;;5007184;28;20235;-70
2021/03/16 12:29:51;;;;;;;7.10;2.60;;;7.80;99.90;;;;;;5004256;28;20207;-71
2021/03/16 12:32:17;;;;;;;5.73;2.03;;;7.90;99.90;;;;;;5005027;28;20216;-71
2021/03/16 12:34:43;;;;;;;6.20;2.30;;;7.80;99.90;;;;;;5004277;28;20181;-71
2021/03/16 12:37:09;;;;;;;6.87;2.83;;;7.70;99.90;;;;;;5001400;28;20204;-71
2021/03/16 12:39:35;;;;;;;6.77;2.50;;;7.60;99.90;;;;;;5002562;28;20246;-71
2021/03/16 12:42:02;;;;;;;8.70;2.70;;;7.50;99.90;;;;;;5004088;28;20483;-70
2021/03/16 12:44:27;;;;;;;5.03;2.30;;;7.30;99.90;;;;;;5003139;28;20425;-71
2021/03/16 12:46:53;;;;;;;4.67;2.17;;;7.20;99.90;;;;;;5000076;28;20448;-71
2021/03/16 12:49:19;;;;;;;6.20;2.90;;;7.10;99.90;;;;;;5002580;28;20214;-71
2021/03/16 12:51:44;;;;;;;3.30;2.70;;;7.00;99.90;;;;;;5004266;28;20621;-71
2021/03/16 12:54:10;;;;;;;8.10;2.17;;;7.00;99.90;;;;;;5001007;28;20187;-70
2021/03/16 12:56:35;;;;;;;2.73;2.30;;;7.10;99.90;;;;;;5005495;28;20186;-71